Terminal Aerodrome Forecast
Issued by NWS

Home | Current Version | Previous Version | Text Only | Print | Product List | Glossary On
Versions: 1 2 3 4 5 6 7 8 9 10 11 12 13 14 15
354
FTUS45 KABQ 162327
TAFROW
TAF
KROW 162327Z 1700/1724 16009KT P6SM SKC
     FM170200 VRB04KT P6SM SKC
     FM172100 17009KT P6SM FEW250=

USA.gov is the U.S. government's official web portal to all federal, state and local government web resources and services.